createdAt,value
2023-01-01T00:03:04.173Z,11.36
2023-01-01T00:08:05.910Z,11.50
2023-01-01T00:13:07.352Z,11.73
2023-01-01T00:18:08.784Z,11.98
2023-01-01T00:23:10.322Z,12.05
2023-01-01T00:28:11.855Z,12.05
2023-01-01T00:33:13.293Z,12.27
2023-01-01T00:38:14.779Z,12.40
2023-01-01T00:43:16.184Z,12.39
2023-01-01T00:48:17.605Z,12.57
2023-01-01T00:53:20.557Z,12.50
2023-01-01T00:58:24.354Z,12.60
2023-01-01T01:03:28.966Z,12.66
2023-01-01T01:08:32.492Z,12.65
2023-01-01T01:13:34.628Z,12.67
2023-01-01T01:18:36.246Z,12.72
2023-01-01T01:23:37.808Z,12.77
2023-01-01T01:28:45.373Z,12.82
2023-01-01T01:33:50.698Z,12.80
2023-01-01T01:38:52.577Z,12.85
2023-01-01T01:44:02.355Z,12.90
2023-01-01T01:49:14.065Z,12.90
2023-01-01T01:54:21.722Z,12.90
2023-01-01T01:59:27.186Z,13.01
2023-01-01T02:04:29.539Z,13.00
2023-01-01T02:09:31.040Z,12.99
2023-01-01T02:14:33.547Z,13.01
2023-01-01T02:19:40.958Z,12.93
2023-01-01T02:24:51.419Z,12.83
2023-01-01T02:29:57.327Z,12.88
2023-01-01T02:35:26.674Z,12.83
2023-01-01T02:40:29.276Z,12.87
2023-01-01T02:45:31.646Z,12.83
2023-01-01T02:50:35.048Z,12.72
2023-01-01T02:56:02.432Z,12.77
2023-01-01T03:01:12.666Z,12.82
2023-01-01T03:06:37.800Z,12.80
2023-01-01T03:11:57.017Z,12.78
2023-01-01T03:17:21.478Z,12.80
2023-01-01T03:22:30.610Z,12.75
2023-01-01T03:27:35.666Z,12.75
2023-01-01T03:33:01.161Z,12.69
2023-01-01T03:38:06.254Z,12.63
2023-01-01T03:43:39.579Z,12.55
2023-01-01T03:49:02.548Z,12.48
2023-01-01T03:54:18.228Z,12.43
2023-01-01T03:59:26.150Z,12.21
2023-01-01T04:04:28.332Z,11.76
2023-01-01T04:09:33.018Z,11.49
2023-01-01T04:14:38.137Z,11.25
2023-01-01T04:19:39.692Z,11.16
2023-01-01T04:24:41.472Z,10.97
2023-01-01T04:29:42.936Z,10.94
2023-01-01T04:34:44.378Z,10.87
2023-01-01T04:39:45.856Z,11.02
2023-01-01T04:44:47.467Z,11.08
2023-01-01T04:49:48.942Z,11.11
2023-01-01T04:54:50.452Z,11.09
2023-01-01T04:59:51.933Z,11.18
2023-01-01T05:04:53.398Z,11.25
2023-01-01T05:09:54.855Z,11.24
2023-01-01T05:14:56.306Z,11.22
2023-01-01T05:19:58.359Z,11.19
2023-01-01T05:24:59.852Z,11.18
2023-01-01T05:30:01.341Z,11.10
2023-01-01T05:35:03.471Z,11.07
2023-01-01T05:40:05.887Z,11.09
2023-01-01T05:45:07.934Z,11.16
2023-01-01T05:55:10.185Z,11.26
2023-01-01T06:00:12.290Z,11.29
2023-01-01T06:05:13.886Z,11.35
2023-01-01T06:10:15.518Z,11.30
2023-01-01T06:15:16.989Z,11.35
2023-01-01T06:20:19.092Z,11.32
2023-01-01T06:25:20.618Z,11.33
2023-01-01T06:30:22.058Z,11.33
2023-01-01T06:35:23.469Z,11.38
2023-01-01T06:40:24.951Z,11.36
2023-01-01T06:45:26.369Z,11.27
2023-01-01T06:50:27.871Z,11.17
2023-01-01T06:55:29.528Z,11.12
2023-01-01T07:00:30.994Z,11.09
2023-01-01T07:05:32.534Z,11.14
2023-01-01T07:10:33.975Z,11.20
2023-01-01T07:15:35.804Z,11.27
2023-01-01T07:20:37.283Z,11.29
2023-01-01T07:25:41.497Z,11.33
2023-01-01T07:30:43.293Z,11.35
2023-01-01T07:35:45.836Z,11.35
2023-01-01T07:40:47.411Z,11.47
2023-01-01T07:45:48.903Z,11.44
2023-01-01T07:50:50.759Z,11.43
2023-01-01T07:55:52.336Z,11.52
2023-01-01T08:00:53.939Z,11.51
2023-01-01T08:05:55.361Z,11.44
2023-01-01T08:11:03.758Z,11.43
2023-01-01T08:16:06.167Z,11.55
2023-01-01T08:21:07.767Z,11.59
2023-01-01T08:26:16.284Z,11.55
2023-01-01T08:31:17.795Z,11.54
2023-01-01T08:36:20.766Z,11.54
2023-01-01T08:41:22.320Z,11.60
2023-01-01T08:46:23.858Z,11.44
2023-01-01T08:51:25.466Z,11.43
2023-01-01T08:56:26.992Z,11.34
2023-01-01T09:01:28.661Z,11.25
2023-01-01T09:06:30.221Z,11.18
2023-01-01T09:11:31.753Z,11.19
2023-01-01T09:16:33.284Z,11.25
2023-01-01T09:21:35.216Z,11.35
2023-01-01T09:26:36.634Z,11.35
2023-01-01T09:31:38.144Z,11.23
2023-01-01T09:36:39.677Z,11.23
2023-01-01T09:41:57.924Z,11.13
2023-01-01T09:47:02.328Z,11.06
2023-01-01T09:52:05.688Z,11.06
2023-01-01T09:57:14.873Z,11.02
2023-01-01T10:02:36.371Z,10.95
2023-01-01T10:07:50.615Z,10.97
2023-01-01T10:13:07.455Z,10.91
2023-01-01T10:18:22.035Z,10.89
2023-01-01T10:23:28.098Z,10.77
2023-01-01T10:28:44.996Z,10.88
2023-01-01T10:33:47.550Z,10.84
2023-01-01T10:38:50.686Z,10.88
2023-01-01T10:43:52.238Z,10.94
2023-01-01T10:49:10.919Z,11.08
2023-01-01T10:54:35.427Z,11.02
2023-01-01T10:59:38.025Z,11.81
2023-01-01T11:04:39.534Z,11.92
2023-01-01T11:09:44.999Z,11.43
2023-01-01T11:14:59.416Z,11.68
2023-01-01T11:20:04.354Z,12.05
2023-01-01T11:25:26.805Z,11.90
2023-01-01T11:30:29.345Z,12.42
2023-01-01T11:35:36.487Z,12.48
2023-01-01T11:40:45.875Z,12.96
2023-01-01T11:45:48.640Z,12.54
2023-01-01T11:50:54.963Z,12.11
2023-01-01T11:56:02.110Z,12.43
2023-01-01T12:01:42.502Z,12.88
2023-01-01T12:07:02.487Z,12.47
2023-01-01T12:12:20.757Z,13.02
2023-01-01T12:17:39.784Z,13.44
2023-01-01T12:22:41.679Z,13.61
2023-01-01T12:27:52.248Z,14.09
2023-01-01T12:33:12.407Z,14.36
2023-01-01T12:38:38.509Z,14.76
2023-01-01T12:43:43.592Z,13.76
2023-01-01T12:48:48.369Z,14.41
2023-01-01T12:54:30.908Z,13.62
2023-01-01T12:59:37.042Z,13.53
2023-01-01T13:04:40.142Z,12.91
2023-01-01T13:09:48.307Z,12.57
2023-01-01T13:14:51.228Z,12.07
2023-01-01T13:19:57.437Z,12.15
2023-01-01T13:25:10.627Z,12.07
2023-01-01T13:30:35.306Z,11.98
2023-01-01T13:35:36.792Z,12.34
2023-01-01T13:40:49.735Z,12.46
2023-01-01T13:46:12.795Z,11.99
2023-01-01T13:52:05.342Z,12.06
2023-01-01T13:57:36.458Z,11.52
2023-01-01T14:02:47.596Z,11.28
2023-01-01T14:07:54.762Z,11.20
2023-01-01T14:13:05.263Z,11.23
2023-01-01T14:18:12.920Z,11.11
2023-01-01T14:23:17.165Z,11.09
2023-01-01T14:28:25.743Z,11.01
2023-01-01T14:33:29.852Z,10.95
2023-01-01T14:38:36.024Z,10.85
2023-01-01T14:43:39.780Z,10.72
2023-01-01T14:48:50.575Z,10.70
2023-01-01T14:53:55.631Z,10.70
2023-01-01T14:59:24.046Z,10.48
2023-01-01T15:04:28.265Z,10.39
2023-01-01T15:09:31.876Z,10.44
2023-01-01T15:14:37.195Z,10.30
2023-01-01T15:19:41.351Z,10.21
2023-01-01T15:24:45.616Z,10.14
2023-01-01T15:29:50.660Z,10.01
2023-01-01T15:34:54.788Z,10.08
2023-01-01T15:39:58.344Z,10.02
2023-01-01T15:45:23.705Z,10.08
2023-01-01T15:50:29.584Z,10.00
2023-01-01T15:55:34.410Z,9.99
2023-01-01T16:00:38.193Z,9.83
2023-01-01T16:05:53.202Z,10.07
2023-01-01T16:10:54.705Z,9.89
2023-01-01T16:15:59.348Z,9.95
2023-01-01T16:21:01.461Z,10.03
2023-01-01T16:26:02.938Z,9.97
2023-01-01T16:31:04.642Z,10.00
2023-01-01T16:36:06.265Z,10.09
2023-01-01T16:41:15.724Z,10.05
2023-01-01T16:46:17.201Z,10.02
2023-01-01T16:51:21.214Z,10.00
2023-01-01T16:56:22.960Z,10.04
2023-01-01T17:01:24.800Z,9.89
2023-01-01T17:06:26.361Z,9.85
2023-01-01T17:11:27.891Z,9.84
2023-01-01T17:16:34.709Z,9.74
2023-01-01T17:21:41.021Z,9.51
2023-01-01T17:26:42.776Z,9.37
2023-01-01T17:31:44.322Z,9.33
2023-01-01T17:36:46.044Z,9.22
2023-01-01T17:41:48.988Z,9.17
2023-01-01T17:46:50.629Z,9.11
2023-01-01T17:51:52.177Z,9.06
2023-01-01T17:56:53.630Z,8.98
2023-01-01T18:01:55.336Z,8.97
2023-01-01T18:07:01.004Z,8.96
2023-01-01T18:12:06.273Z,8.95
2023-01-01T18:17:07.737Z,8.84
2023-01-01T18:22:09.201Z,8.83
2023-01-01T18:27:10.690Z,8.90
2023-01-01T18:32:12.164Z,8.93
2023-01-01T18:37:13.728Z,8.87
2023-01-01T18:42:35.037Z,8.86
2023-01-01T18:47:36.715Z,8.77
2023-01-01T18:52:38.174Z,8.83
2023-01-01T18:57:40.290Z,8.79
2023-01-01T19:02:52.771Z,8.83
2023-01-01T19:08:17.086Z,8.74
2023-01-01T19:13:20.137Z,8.76
2023-01-01T19:18:24.571Z,8.71
2023-01-01T19:23:26.033Z,8.81
2023-01-01T19:28:35.804Z,8.77
2023-01-01T19:33:37.328Z,8.78
2023-01-01T19:38:39.660Z,8.84
2023-01-01T19:43:41.112Z,8.85
2023-01-01T19:48:42.654Z,8.85
2023-01-01T19:53:44.184Z,8.96
2023-01-01T19:58:46.800Z,8.86
2023-01-01T20:03:57.387Z,8.79
2023-01-01T20:08:59.101Z,8.82
2023-01-01T20:14:00.790Z,8.86
2023-01-01T20:19:02.257Z,8.87
2023-01-01T20:24:04.001Z,8.78
2023-01-01T20:29:20.378Z,8.85
2023-01-01T20:34:22.998Z,8.86
2023-01-01T20:39:24.551Z,8.94
2023-01-01T20:44:26.402Z,9.02
2023-01-01T20:49:27.992Z,9.03
2023-01-01T20:54:29.483Z,9.12
2023-01-01T20:59:36.807Z,9.09
2023-01-01T21:04:40.063Z,9.08
2023-01-01T21:09:42.089Z,9.00
2023-01-01T21:14:43.640Z,8.95
2023-01-01T21:19:45.335Z,8.97
2023-01-01T21:24:53.374Z,8.94
2023-01-01T21:29:57.560Z,8.98
2023-01-01T21:34:59.168Z,8.99
2023-01-01T21:40:07.861Z,8.96
2023-01-01T21:45:18.957Z,9.02
2023-01-01T21:50:29.457Z,9.06
2023-01-01T21:55:51.952Z,9.02
2023-01-01T22:00:53.598Z,8.96
2023-01-01T22:05:59.265Z,8.96
2023-01-01T22:11:01.361Z,9.00
2023-01-01T22:16:03.087Z,8.99
2023-01-01T22:21:04.767Z,8.96
2023-01-01T22:26:15.375Z,8.99
2023-01-01T22:31:22.039Z,8.93
2023-01-01T22:36:33.346Z,8.85
2023-01-01T22:41:34.902Z,8.78
2023-01-01T22:46:39.135Z,8.74
2023-01-01T22:51:43.421Z,8.73
2023-01-01T22:56:44.862Z,8.73
2023-01-01T23:01:46.569Z,8.70
2023-01-01T23:06:48.174Z,8.67
2023-01-01T23:11:49.874Z,8.63
2023-01-01T23:16:51.353Z,8.66
2023-01-01T23:21:52.987Z,8.68
2023-01-01T23:26:54.594Z,8.66
2023-01-01T23:31:56.846Z,8.66
2023-01-01T23:36:58.695Z,8.70
2023-01-01T23:42:00.404Z,8.57
2023-01-01T23:47:01.961Z,8.54
2023-01-01T23:52:04.018Z,8.59
2023-01-01T23:57:05.590Z,8.58
